This is the latest recevied weather packets stored in our database for station/object K4SPB-4. If no packets are shown the sender has not sent any weather packets the latest 10 day(s).
| Time | Temp. | Humidity | Pressure | Rain* | Wind** | Luminosity | Snow |
|---|---|---|---|---|---|---|---|
| 1778407247 | 15.56° C | 90% | 1013.5 hPa | 0 mm | - | - | - |
| 1778404217 | 16.11° C | 88% | 1012.7 hPa | 0 mm | - | - | - |
| 1778403033 | 16.11° C | 87% | 1012.7 hPa | 0 mm | - | - | - |
| 1778402450 | 16.11° C | 86% | 1012.7 hPa | 0 mm | - | - | - |
| 1778394021 | 16.67° C | 75% | 1012.2 hPa | 0 mm | - | - | - |
| 1778391029 | 17.22° C | 72% | 1012.1 hPa | 0 mm | - | - | - |
| 1778381432 | 20° C | 63% | 1012 hPa | 0 mm | - | - | - |
| 1778380829 | 20° C | 62% | 1011.9 hPa | 0 mm | - | - | - |
| 1778380227 | 20° C | 61% | 1011.7 hPa | 0 mm | - | - | - |
| 1778376694 | 22.22° C | 50% | 1010.9 hPa | 0 mm | - | - | - |
| 1778376032 | 22.78° C | 48% | 1010.6 hPa | 0 mm | - | - | - |
| 1778374829 | 23.89° C | 45% | 1010.4 hPa | 0 mm | - | - | - |
| 1778371235 | 26.11° C | 37% | 1009.7 hPa | 0 mm | - | - | - |
| 1778370632 | 26.11° C | 37% | 1009.6 hPa | 0 mm | - | - | - |
| 1778369428 | 26.11° C | 36% | 1009.4 hPa | 0 mm | - | - | - |
| 1778364629 | 26.67° C | 32% | 1009.2 hPa | 0 mm | - | - | - |
| 1778359832 | 26.67° C | 34% | 1009.5 hPa | 0 mm | - | - | - |
| 1778358629 | 26.67° C | 34% | 1009.6 hPa | 0 mm | - | - | - |
| 1778357444 | 26.67° C | 33% | 1009.8 hPa | 0 mm | - | - | - |
| 1778355637 | 26.11° C | 37% | 1010 hPa | 0 mm | - | - | - |
| 1778353226 | 26.11° C | 37% | 1010.2 hPa | 0 mm | - | - | - |
| 1778352626 | 26.11° C | 35% | 1010.1 hPa | 0 mm | - | - | - |
| 1778350818 | 25.56° C | 41% | 1010.4 hPa | 0 mm | - | - | - |
| 1778347829 | 24.44° C | 46% | 1010.6 hPa | 0 mm | - | - | - |
| 1778346624 | 24.44° C | 49% | 1010.6 hPa | 0 mm | - | - | - |
* Rain latest hour (hover to see other rain measurements)
** Current wind speed in m/s (hover to see current wind gust speed)